Time;durP1;ratioP1;P1;durP2;ratioP2;P2;SDS_P1;SDS_P2;PMS_P1;PMS_P2;Temp;Humidity;BMP_temperature;BMP_pressure;BME280_temperature;BME280_humidity;BME280_pressure;Samples;Min_cycle;Max_cycle;Signal;HPM_P1;HPM_P2
2022/10/31 00:02:17;;;;;;;9.63;7.47;;;19.30;93.40;;;19.24;71.82;99066.53;5054692;28;20442;-76
2022/10/31 00:04:43;;;;;;;10.90;7.78;;;19.40;93.40;;;19.25;71.42;99066.19;5050104;28;20041;-76
2022/10/31 00:07:09;;;;;;;10.07;7.07;;;19.30;93.30;;;19.23;72.13;99071.22;5035878;28;20043;-76
2022/10/31 00:09:35;;;;;;;13.25;8.57;;;19.40;93.50;;;19.26;72.49;99069.78;5066280;28;20040;-76
2022/10/31 00:12:01;;;;;;;10.07;6.82;;;19.30;93.50;;;19.23;72.58;99071.22;5053477;28;20058;-76
2022/10/31 00:14:27;;;;;;;11.25;7.40;;;19.40;93.50;;;19.23;71.73;99070.41;5036662;28;20124;-76
2022/10/31 00:16:53;;;;;;;19.23;8.68;;;19.40;93.40;;;19.20;71.78;99069.09;5035040;28;20466;-76
2022/10/31 00:19:19;;;;;;;11.73;7.45;;;19.40;93.40;;;19.23;71.36;99079.47;5052489;28;20040;-76
2022/10/31 00:21:46;;;;;;;11.48;7.30;;;19.40;93.30;;;19.24;71.49;99074.78;5038198;28;20051;-76
2022/10/31 00:24:12;;;;;;;12.18;7.05;;;19.40;93.40;;;19.23;72.32;99076.72;5021719;28;20052;-77
2022/10/31 00:26:38;;;;;;;11.02;7.43;;;19.40;93.50;;;19.24;72.48;99077.53;5049376;28;20124;-76
2022/10/31 00:29:04;;;;;;;10.77;7.75;;;19.40;93.50;;;19.23;71.75;99084.16;5048896;28;20055;-77
2022/10/31 00:31:30;;;;;;;12.27;7.68;;;19.40;93.70;;;19.19;71.71;99089.50;5034968;28;20571;-76
2022/10/31 00:33:57;;;;;;;11.77;7.55;;;19.30;93.30;;;19.21;71.43;99080.91;5055917;28;20044;-77
2022/10/31 00:36:23;;;;;;;13.07;7.35;;;19.40;93.30;;;19.23;71.33;99086.91;5039472;28;20435;-76
2022/10/31 00:38:49;;;;;;;14.02;7.20;;;19.30;93.30;;;19.19;72.07;99092.25;5043371;28;20037;-76
2022/10/31 00:41:16;;;;;;;10.05;7.63;;;19.30;93.40;;;19.20;72.13;99087.56;5057898;28;20044;-76
2022/10/31 00:43:42;;;;;;;9.80;6.97;;;19.30;93.50;;;19.19;72.08;99083.19;5039771;28;20107;-76
2022/10/31 00:46:10;;;;;;;12.77;7.25;;;19.30;93.40;;;19.20;71.39;99093.84;5027793;28;20644;-76
2022/10/31 00:48:36;;;;;;;9.38;7.28;;;19.30;93.30;;;19.20;70.93;99088.34;5066063;28;20060;-76
2022/10/31 00:51:02;;;;;;;9.68;8.07;;;19.30;93.20;;;19.21;71.07;99089.16;5045289;28;20036;-76
2022/10/31 00:53:28;;;;;;;9.98;7.18;;;19.30;93.30;;;19.19;70.80;99095.00;5024015;28;20052;-77
2022/10/31 00:55:54;;;;;;;12.48;7.53;;;19.30;93.20;;;19.20;71.79;99087.56;5052229;28;20112;-76
2022/10/31 00:58:21;;;;;;;10.70;7.22;;;19.30;93.50;;;19.20;72.07;99093.84;5057764;28;20037;-77
2022/10/31 01:00:54;;;;;;;10.23;7.10;;;19.30;93.50;;;19.16;71.79;99092.91;5039794;28;20060;-77
2022/10/31 01:03:39;;;;;;;14.23;8.95;;;19.30;93.40;;;19.18;70.73;99106.31;5044044;28;20036;-76
2022/10/31 01:06:08;;;;;;;11.40;7.50;;;19.30;93.20;;;19.18;70.76;99100.81;5042382;28;20114;-76
2022/10/31 01:08:36;;;;;;;8.95;7.10;;;19.30;93.20;;;19.15;70.82;99102.28;5066165;28;20045;-76
2022/10/31 01:11:10;;;;;;;14.90;8.50;;;19.30;93.20;;;19.16;71.41;99097.56;5033723;28;20044;-76
2022/10/31 01:13:36;;;;;;;11.93;7.57;;;19.30;93.40;;;19.17;71.60;99100.00;5049273;28;20490;-76
2022/10/31 01:16:03;;;;;;;11.35;7.40;;;19.30;93.80;;;19.14;71.77;99095.16;5051690;28;20037;-76
2022/10/31 01:18:29;;;;;;;9.68;6.70;;;19.30;93.40;;;19.18;70.64;99096.13;5048307;28;20036;-76
2022/10/31 01:21:08;;;;;;;15.73;7.25;;;19.30;93.30;;;19.17;70.21;99093.72;5016016;28;20881;-76
2022/10/31 01:23:34;;;;;;;10.80;7.28;;;19.30;93.20;;;19.15;70.28;99095.97;5052765;28;20094;-76
2022/10/31 01:26:11;;;;;;;9.10;7.57;;;19.20;93.10;;;19.17;70.13;99088.22;5021106;28;20512;-76
2022/10/31 01:28:39;;;;;;;8.45;7.13;;;19.20;93.20;;;19.13;71.26;99087.22;5048997;28;20045;-76
2022/10/31 01:31:08;;;;;;;10.15;6.78;;;19.30;93.30;;;19.13;71.27;99081.72;5050209;28;20120;-76
2022/10/31 01:33:35;;;;;;;12.25;7.72;;;19.20;93.30;;;19.15;70.71;99083.03;5051946;28;20032;-76
2022/10/31 01:36:01;;;;;;;9.18;6.68;;;19.20;93.20;;;19.14;70.08;99084.16;5039587;28;20036;-76
2022/10/31 01:38:30;;;;;;;11.35;7.43;;;19.20;93.10;;;19.14;69.63;99078.66;5035038;28;20390;-76
2022/10/31 01:40:56;;;;;;;13.15;7.40;;;19.20;93.00;;;19.12;69.79;99074.63;5051412;28;20408;-76
2022/10/31 01:43:22;;;;;;;11.05;7.30;;;19.20;93.10;;;19.13;70.34;99077.03;5065389;28;20468;-76
2022/10/31 01:45:52;;;;;;;10.75;6.55;;;19.20;93.30;;;19.13;70.84;99074.28;5038183;28;20089;-76
2022/10/31 01:48:20;;;;;;;15.85;6.55;;;19.20;93.30;;;19.10;70.71;99080.44;5035800;28;20051;-76
2022/10/31 01:50:47;;;;;;;8.95;6.35;;;19.20;93.20;;;19.10;69.95;99080.44;5036921;28;20048;-76
2022/10/31 01:53:14;;;;;;;13.23;7.18;;;19.20;93.10;;;19.10;69.58;99074.94;5033614;28;20474;-76
2022/10/31 01:55:42;;;;;;;8.65;6.63;;;19.20;93.00;;;19.09;69.39;99076.06;5054587;28;20056;-76
2022/10/31 01:58:19;;;;;;;9.88;6.60;;;19.20;93.00;;;19.08;69.55;99078.03;5060979;28;20044;-76
2022/10/31 02:00:48;;;;;;;10.00;6.35;;;19.10;93.00;;;19.07;70.37;99081.88;5045120;28;20495;-76
2022/10/31 02:03:14;;;;;;;8.82;6.22;;;19.20;93.20;;;19.07;70.96;99081.09;5037623;28;20132;-76
2022/10/31 02:05:40;;;;;;;10.32;7.18;;;19.10;93.30;;;19.07;69.97;99078.34;5051419;28;20051;-76
2022/10/31 02:08:29;;;;;;;9.25;6.18;;;19.20;93.10;;;19.09;69.23;99082.38;5053695;28;20048;-76
2022/10/31 02:10:58;;;;;;;8.90;5.68;;;19.10;93.00;;;19.04;69.45;99084.50;5039467;28;20465;-76
2022/10/31 02:13:24;;;;;;;9.05;7.10;;;19.10;93.00;;;19.06;69.42;99080.28;5049862;28;20252;-76
2022/10/31 02:15:53;;;;;;;8.38;6.13;;;19.20;93.00;;;19.07;69.81;99076.38;5025346;28;20044;-76
2022/10/31 02:18:20;;;;;;;12.15;7.03;;;19.10;93.10;;;19.07;70.03;99078.34;5019345;28;20041;-76
2022/10/31 02:21:11;;;;;;;7.93;6.50;;;19.20;93.20;;;19.08;69.70;99071.69;5049615;28;20045;-76
2022/10/31 02:23:52;;;;;;;9.68;6.18;;;19.20;93.10;;;19.04;69.13;99076.25;5049626;28;20147;-76
2022/10/31 02:26:38;;;;;;;11.05;6.53;;;19.20;93.00;;;19.00;69.26;99084.31;5064344;28;20041;-76
2022/10/31 02:29:15;;;;;;;9.70;6.45;;;19.10;93.00;;;19.02;69.16;99075.75;5039391;28;20036;-76
2022/10/31 02:32:16;;;;;;;9.95;6.88;;;19.10;93.00;;;19.05;69.24;99075.09;5047315;28;20165;-76
2022/10/31 02:35:17;;;;;;;7.85;6.05;;;19.10;93.10;;;19.03;69.61;99088.34;5047988;28;20536;-76
2022/10/31 02:37:55;;;;;;;10.98;6.82;;;19.10;93.20;;;19.03;69.42;99077.34;5062984;28;20410;-76
2022/10/31 02:40:26;;;;;;;10.15;6.53;;;19.10;93.10;;;19.05;68.82;99092.41;5019662;28;20033;-76
2022/10/31 02:43:17;;;;;;;10.05;7.18;;;19.10;93.00;;;18.97;69.03;99089.66;5053947;28;20099;-76
2022/10/31 02:46:20;;;;;;;11.63;6.13;;;19.10;93.00;;;19.01;68.73;99098.88;5068651;28;20047;-76
2022/10/31 02:48:46;;;;;;;10.63;6.38;;;19.10;93.00;;;19.03;69.27;99099.34;5060910;28;20048;-76
2022/10/31 02:51:12;;;;;;;11.85;6.18;;;19.10;93.10;;;19.05;69.58;99100.63;5029052;28;20113;-76
2022/10/31 02:53:38;;;;;;;10.98;6.78;;;19.10;93.10;;;18.99;69.26;99099.19;5029272;28;20036;-76
2022/10/31 02:56:18;;;;;;;6.70;5.45;;;19.10;93.00;;;18.99;69.08;99095.63;5046279;28;20134;-76
2022/10/31 02:58:51;;;;;;;9.30;6.38;;;19.10;93.00;;;18.99;68.74;99095.63;5027792;28;20041;-76
2022/10/31 03:02:19;;;;;;;8.10;6.47;;;19.10;93.00;;;19.00;68.58;99100.78;5050302;28;20080;-76
2022/10/31 03:04:57;;;;;;;9.27;5.93;;;19.10;93.00;;;19.02;69.17;99108.75;5050407;28;20083;-76
2022/10/31 03:07:33;;;;;;;10.07;6.25;;;19.10;93.10;;;19.04;69.37;99114.72;5064079;28;20037;-76
2022/10/31 03:10:44;;;;;;;7.95;5.57;;;19.10;93.20;;;19.00;68.73;99106.28;5039066;28;20037;-76
2022/10/31 03:13:19;;;;;;;8.82;6.10;;;19.10;93.00;;;19.01;68.55;99112.63;5056796;28;20054;-76
2022/10/31 03:15:57;;;;;;;6.32;5.63;;;19.10;93.00;;;18.99;68.29;99109.38;5025667;28;20063;-76
2022/10/31 03:18:32;;;;;;;8.40;6.75;;;19.10;93.00;;;18.98;68.33;99121.50;5038166;28;20129;-76
2022/10/31 03:21:11;;;;;;;9.27;5.80;;;19.00;93.00;;;18.99;69.42;99114.88;5050645;28;20047;-76
2022/10/31 03:23:37;;;;;;;9.70;6.75;;;19.10;93.20;;;18.98;69.50;99113.25;5057825;28;20041;-76
2022/10/31 03:26:05;;;;;;;9.68;6.85;;;19.10;93.20;;;19.00;69.27;99114.53;5073280;28;20047;-76
2022/10/31 03:28:46;;;;;;;10.45;6.72;;;19.10;93.10;;;19.00;68.49;99116.50;5038471;28;20490;-76
2022/10/31 03:31:12;;;;;;;7.95;5.50;;;19.00;93.00;;;18.96;68.88;99126.53;5026411;28;20094;-76
2022/10/31 03:33:39;;;;;;;9.13;5.78;;;19.00;93.00;;;18.96;68.36;99116.34;5043656;28;20063;-76
2022/10/31 03:36:05;;;;;;;8.23;6.05;;;19.00;93.00;;;19.01;68.83;99120.88;5055612;28;20032;-76
2022/10/31 03:38:32;;;;;;;7.32;5.25;;;19.00;93.10;;;18.99;69.12;99128.63;5053690;28;20376;-76
2022/10/31 03:40:58;;;;;;;10.00;7.30;;;19.10;93.10;;;18.99;69.25;99125.88;5044255;28;20045;-77
2022/10/31 03:43:30;;;;;;;9.95;6.50;;;19.10;93.10;;;18.99;68.56;99121.19;5038333;28;20033;-77
2022/10/31 03:45:56;;;;;;;9.07;5.82;;;19.10;93.00;;;18.97;68.32;99126.19;5055205;28;20041;-77
2022/10/31 03:48:22;;;;;;;7.97;6.03;;;19.10;93.00;;;18.94;68.71;99121.34;5049884;28;20075;-77
2022/10/31 03:51:37;;;;;;;6.97;5.65;;;19.10;93.00;;;18.96;68.32;99124.59;5050450;28;20454;-76
2022/10/31 03:54:44;;;;;;;7.10;5.60;;;19.00;93.00;;;18.98;67.76;99124.25;4986819;28;20042;-76
2022/10/31 03:57:18;;;;;;;9.80;6.15;;;19.10;92.90;;;18.96;67.27;99119.09;5052989;28;20040;-76
2022/10/31 03:59:48;;;;;;;6.63;4.95;;;19.00;92.60;;;18.91;66.62;99119.25;5068831;28;20047;-76
2022/10/31 04:02:16;;;;;;;11.00;6.68;;;19.00;92.60;;;18.94;66.48;99118.59;5054479;28;20040;-76
2022/10/31 04:04:43;;;;;;;8.40;6.30;;;19.00;92.50;;;18.93;67.63;99127.16;5037944;28;20064;-76
2022/10/31 04:07:09;;;;;;;7.43;5.68;;;19.00;92.90;;;18.94;68.04;99123.28;5019101;28;20048;-76
2022/10/31 04:09:37;;;;;;;7.10;6.07;;;19.00;93.30;;;18.94;67.85;99117.78;5066442;28;20048;-76
2022/10/31 04:12:05;;;;;;;9.35;5.80;;;19.00;92.90;;;18.95;66.67;99130.38;5032915;28;20044;-76
2022/10/31 04:14:31;;;;;;;7.70;5.97;;;19.00;92.90;;;18.91;66.25;99124.75;5021762;28;20068;-76
2022/10/31 04:16:57;;;;;;;6.25;5.13;;;19.00;92.50;;;18.90;65.88;99125.03;5038738;28;20105;-76
2022/10/31 04:19:23;;;;;;;8.98;5.65;;;19.00;92.50;;;18.92;66.11;99122.78;5053277;28;20044;-76
2022/10/31 04:21:49;;;;;;;8.00;5.60;;;19.00;92.60;;;18.92;67.26;99123.59;5033600;28;20040;-76
2022/10/31 04:24:15;;;;;;;6.75;5.30;;;19.00;92.80;;;18.93;67.40;99127.16;5068487;28;20047;-76
2022/10/31 04:26:41;;;;;;;10.63;6.45;;;19.00;92.80;;;18.91;66.42;99124.75;5023971;28;20040;-76
2022/10/31 04:29:07;;;;;;;9.18;6.07;;;19.00;92.60;;;18.88;65.63;99125.38;5051433;28;20086;-76
2022/10/31 04:31:33;;;;;;;9.82;5.97;;;19.00;92.50;;;18.86;65.59;99127.63;5064386;28;20863;-76
2022/10/31 04:33:59;;;;;;;7.57;5.88;;;19.00;92.50;;;18.88;65.30;99122.63;5053203;28;20054;-76
2022/10/31 04:36:25;;;;;;;6.70;5.25;;;18.90;92.40;;;18.85;66.02;99121.34;5040813;28;20089;-76
2022/10/31 04:38:51;;;;;;;11.88;6.57;;;18.90;92.60;;;18.89;66.76;99123.44;5045612;28;20041;-76
2022/10/31 04:41:18;;;;;;;9.68;5.88;;;19.00;92.90;;;18.88;66.80;99125.38;5039596;28;20056;-76
2022/10/31 04:43:44;;;;;;;7.93;5.68;;;19.00;92.70;;;18.89;65.69;99115.19;5067179;28;20457;-77
2022/10/31 04:46:10;;;;;;;9.20;5.50;;;18.90;92.50;;;18.84;65.35;99124.41;5045619;28;20041;-78
2022/10/31 04:48:36;;;;;;;7.97;5.97;;;18.90;92.40;;;18.83;65.22;99126.34;5018927;28;20053;-78
2022/10/31 04:51:02;;;;;;;7.47;5.47;;;18.90;92.30;;;18.86;65.02;99127.63;5034430;28;20040;-78
2022/10/31 04:53:29;;;;;;;9.15;6.25;;;18.90;92.30;;;18.87;65.98;99127.31;5021057;28;20124;-78
2022/10/31 04:55:55;;;;;;;6.68;5.07;;;19.00;92.70;;;18.85;66.49;99126.84;5029063;28;20449;-78
2022/10/31 04:58:21;;;;;;;9.23;6.35;;;19.00;92.70;;;18.86;66.04;99127.63;5049920;28;20045;-79
2022/10/31 05:00:47;;;;;;;9.90;5.93;;;18.90;92.60;;;18.84;64.85;99125.19;5037996;28;20068;-78
2022/10/31 05:03:13;;;;;;;7.85;5.55;;;18.90;92.30;;;18.81;64.76;99130.53;5034678;28;20068;-79
2022/10/31 05:05:39;;;;;;;6.68;5.18;;;18.90;92.20;;;18.84;64.49;99136.19;5051492;28;20039;-78
2022/10/31 05:08:05;;;;;;;7.03;5.28;;;18.90;92.20;;;18.83;64.62;99137.34;5048039;28;20036;-78
2022/10/31 05:10:32;;;;;;;8.50;6.18;;;18.90;92.30;;;18.82;65.72;99127.44;5024139;28;20098;-78
2022/10/31 05:13:00;;;;;;;6.13;4.57;;;18.90;92.60;;;18.82;65.92;99132.16;5039825;28;20468;-78
2022/10/31 05:15:26;;;;;;;8.98;5.85;;;18.90;92.60;;;18.85;64.76;99137.00;5038637;28;20064;-78
2022/10/31 05:17:53;;;;;;;6.13;4.65;;;18.90;92.30;;;18.85;63.82;99132.34;5064708;28;20122;-79
2022/10/31 05:20:20;;;;;;;5.95;4.72;;;18.90;92.10;;;18.84;63.80;99138.94;5047000;28;20488;-79
2022/10/31 05:22:51;;;;;;;7.63;5.78;;;18.90;92.10;;;18.79;63.88;99138.28;5053593;28;20135;-78
2022/10/31 05:25:18;;;;;;;7.07;5.43;;;18.90;92.10;;;18.81;64.58;99145.09;5052095;28;20085;-78
2022/10/31 05:27:45;;;;;;;8.20;5.30;;;18.90;92.40;;;18.83;65.08;99144.78;5024971;28;20049;-78
2022/10/31 05:30:15;;;;;;;11.85;5.55;;;18.90;92.50;;;18.82;65.25;99146.69;5025080;28;20115;-78
2022/10/31 05:32:43;;;;;;;7.22;5.85;;;18.90;92.50;;;18.82;63.92;99154.94;5053539;28;20051;-78
2022/10/31 05:35:15;;;;;;;7.07;5.53;;;18.90;92.20;;;18.79;63.36;99163.81;5045172;28;20044;-78
2022/10/31 05:37:41;;;;;;;9.95;5.10;;;18.90;92.10;;;18.80;63.04;99156.38;5010763;28;20056;-79
2022/10/31 05:40:09;;;;;;;11.95;6.25;;;18.90;92.10;;;18.81;63.32;99158.81;5023955;28;20124;-79
2022/10/31 05:42:35;;;;;;;8.45;6.00;;;18.90;92.10;;;18.83;64.08;99164.81;5017403;28;20040;-79
2022/10/31 05:45:04;;;;;;;6.28;4.97;;;18.90;92.30;;;18.84;64.16;99160.94;5018035;28;20456;-78
2022/10/31 05:47:30;;;;;;;7.65;5.00;;;18.90;92.30;;;18.84;63.60;99160.94;5046134;28;20051;-78
2022/10/31 05:49:57;;;;;;;8.25;5.35;;;18.90;92.10;;;18.84;62.89;99169.19;5020515;28;20037;-78
2022/10/31 05:52:23;;;;;;;7.55;5.53;;;18.90;92.10;;;18.84;62.71;99163.69;5045661;28;20396;-79
2022/10/31 05:54:49;;;;;;;7.80;5.75;;;18.90;92.10;;;18.79;63.27;99155.59;5033931;28;20040;-79
2022/10/31 05:57:15;;;;;;;6.43;5.03;;;18.90;92.10;;;18.83;63.18;99170.31;5038435;28;20113;-79
2022/10/31 05:59:41;;;;;;;7.82;6.30;;;18.90;92.10;;;18.83;62.93;99169.50;5035109;28;20684;-78
2022/10/31 06:02:08;;;;;;;10.82;6.20;;;18.90;92.10;;;18.84;63.11;99179.38;5048747;28;20388;-78
2022/10/31 06:04:34;;;;;;;9.23;5.28;;;18.90;92.10;;;18.81;63.50;99175.31;5034687;28;20040;-78
2022/10/31 06:07:00;;;;;;;7.93;5.00;;;18.90;92.20;;;18.83;63.88;99189.56;5049048;28;20044;-79
2022/10/31 06:09:26;;;;;;;6.90;5.43;;;18.90;92.30;;;18.85;63.62;99181.81;5045549;28;20064;-79
2022/10/31 06:11:52;;;;;;;6.18;4.85;;;18.90;92.20;;;18.87;63.14;99187.78;5065187;28;20519;-78
2022/10/31 06:14:19;;;;;;;9.75;6.15;;;18.90;92.10;;;18.83;63.23;99181.31;5036688;28;20040;-78
2022/10/31 06:16:44;;;;;;;8.75;5.75;;;18.90;92.10;;;18.85;63.27;99180.97;5043434;28;20079;-78
2022/10/31 06:19:11;;;;;;;6.68;5.28;;;18.80;92.10;;;18.86;63.19;99190.84;5029375;28;20448;-78
2022/10/31 06:21:37;;;;;;;10.70;5.65;;;18.90;92.20;;;18.85;63.63;99194.72;5031656;28;20036;-78
2022/10/31 06:24:03;;;;;;;6.20;5.13;;;18.90;92.30;;;18.84;64.15;99193.91;5035444;28;20111;-78
2022/10/31 06:26:29;;;;;;;8.30;5.63;;;18.90;92.40;;;18.87;63.43;99195.22;5018765;28;20062;-77
2022/10/31 06:28:55;;;;;;;6.85;4.93;;;18.90;92.20;;;18.86;63.40;99196.34;5048511;28;20045;-78
2022/10/31 06:31:21;;;;;;;6.72;5.05;;;18.90;92.10;;;18.87;63.03;99196.00;5032821;28;20037;-78
2022/10/31 06:33:47;;;;;;;10.73;5.22;;;18.90;92.10;;;18.89;62.84;99203.16;5044088;28;20067;-77
2022/10/31 06:36:13;;;;;;;5.35;4.45;;;18.90;92.10;;;18.90;63.19;99205.56;5062707;28;20033;-78
2022/10/31 06:38:40;;;;;;;6.93;5.25;;;18.90;92.30;;;18.91;63.23;99206.41;5035370;28;20463;-78
2022/10/31 06:41:08;;;;;;;9.52;4.95;;;18.90;92.30;;;18.87;63.87;99215.25;5048889;28;20133;-79
2022/10/31 06:43:34;;;;;;;9.68;6.22;;;18.90;92.40;;;18.92;63.38;99216.25;5061792;28;20486;-79
2022/10/31 06:46:04;;;;;;;6.10;5.40;;;18.90;92.20;;;18.91;63.19;99211.91;5053529;28;20036;-78
2022/10/31 06:48:31;;;;;;;8.60;5.35;;;18.90;92.10;;;18.90;63.01;99219.31;5028198;28;20055;-79
2022/10/31 06:50:59;;;;;;;6.45;5.07;;;18.90;92.20;;;18.90;63.12;99224.00;5028280;28;20041;-78
2022/10/31 06:53:29;;;;;;;7.55;5.55;;;18.90;92.20;;;18.90;63.40;99222.06;5063462;28;20652;-78
2022/10/31 06:55:56;;;;;;;6.72;5.22;;;18.90;92.30;;;18.92;63.70;99222.56;5018185;28;20041;-79
2022/10/31 06:58:22;;;;;;;6.80;4.78;;;19.00;92.40;;;18.94;63.37;99214.00;5052345;28;20123;-79
2022/10/31 07:00:48;;;;;;;5.90;5.20;;;19.00;92.20;;;18.96;63.08;99222.75;5030990;28;20186;-79
2022/10/31 07:03:15;;;;;;;7.43;5.18;;;19.00;92.10;;;18.96;62.98;99220.78;5035743;28;20048;-79
2022/10/31 07:05:41;;;;;;;6.85;4.95;;;19.00;92.20;;;18.96;62.98;99222.75;5049333;28;20396;-79
2022/10/31 07:08:11;;;;;;;7.55;5.55;;;19.00;92.20;;;18.95;63.22;99221.09;5055333;28;20055;-78
2022/10/31 07:10:38;;;;;;;7.35;4.85;;;19.00;92.30;;;18.97;63.74;99225.16;5016970;28;20076;-79
2022/10/31 07:13:06;;;;;;;8.52;5.63;;;19.00;92.40;;;18.98;63.86;99223.22;5054191;28;20052;-78
2022/10/31 07:15:37;;;;;;;5.97;4.40;;;19.00;92.50;;;19.00;63.46;99223.72;5045935;28;20045;-78
2022/10/31 07:18:05;;;;;;;9.77;5.40;;;19.00;92.30;;;19.01;63.37;99225.34;5014554;28;20044;-79
2022/10/31 07:20:31;;;;;;;5.60;4.72;;;19.00;92.60;;;19.00;63.36;99227.25;5032553;28;20479;-78
2022/10/31 07:22:58;;;;;;;8.57;4.93;;;19.00;92.20;;;19.01;63.15;99231.66;5028165;28;20082;-78
2022/10/31 07:25:24;;;;;;;9.30;5.57;;;19.00;92.30;;;18.99;63.61;99225.66;5030552;28;20048;-79
2022/10/31 07:27:50;;;;;;;8.65;5.07;;;19.00;92.40;;;19.02;63.96;99227.75;5044231;28;20068;-79
2022/10/31 07:30:19;;;;;;;7.45;5.95;;;19.00;92.40;;;19.07;63.59;99235.06;5035325;28;20048;-78
2022/10/31 07:32:49;;;;;;;6.53;4.55;;;19.10;92.40;;;19.07;63.24;99227.59;5032148;28;20064;-78
2022/10/31 07:35:18;;;;;;;7.03;5.00;;;19.10;92.30;;;19.06;63.30;99237.00;5030338;28;20419;-79
2022/10/31 07:37:44;;;;;;;6.90;4.97;;;19.10;92.30;;;19.09;63.10;99232.81;5029512;28;20033;-78
2022/10/31 07:40:11;;;;;;;6.13;4.68;;;19.10;92.30;;;19.09;63.04;99230.84;5047425;28;20049;-78
2022/10/31 07:42:42;;;;;;;6.28;4.18;;;19.10;92.30;;;19.10;63.26;99234.41;5040486;28;20143;-78
2022/10/31 07:45:11;;;;;;;6.00;4.65;;;19.10;92.40;;;19.12;63.56;99228.59;5040319;28;20120;-78
2022/10/31 07:47:41;;;;;;;6.90;4.88;;;19.10;92.40;;;19.12;63.14;99232.16;5015534;28;20452;-79
2022/10/31 07:50:08;;;;;;;7.30;4.50;;;19.10;92.30;;;19.12;63.31;99237.66;5029987;28;20480;-79
2022/10/31 07:52:35;;;;;;;5.90;4.78;;;19.10;92.20;;;19.14;62.97;99232.66;5033291;28;20051;-79
2022/10/31 07:55:01;;;;;;;6.43;4.85;;;19.20;92.20;;;19.15;62.98;99231.50;5052797;28;20045;-79
2022/10/31 07:57:28;;;;;;;6.57;4.70;;;19.10;92.20;;;19.16;63.22;99229.56;5041128;28;20424;-79
2022/10/31 07:59:54;;;;;;;7.60;4.40;;;19.20;92.20;;;19.16;63.18;99232.31;5025091;28;20045;-79
2022/10/31 08:02:20;;;;;;;8.85;5.50;;;19.20;92.20;;;19.18;63.14;99225.38;5035887;28;20041;-79
2022/10/31 08:04:46;;;;;;;6.10;4.38;;;19.20;92.20;;;19.18;63.02;99228.13;4997467;28;20408;-79
2022/10/31 08:07:12;;;;;;;5.13;4.05;;;19.20;92.20;;;19.20;62.80;99225.84;5018868;28;20131;-79
2022/10/31 08:09:38;;;;;;;5.32;4.65;;;19.20;92.20;;;19.22;62.54;99229.09;5043897;28;20048;-78
2022/10/31 08:12:04;;;;;;;6.78;4.55;;;19.30;92.30;;;19.22;62.56;99231.84;5030930;28;20123;-79
2022/10/31 08:14:30;;;;;;;4.88;4.13;;;19.20;92.20;;;19.21;62.90;99223.91;5046527;28;20037;-79
2022/10/31 08:16:57;;;;;;;7.07;5.13;;;19.30;92.30;;;19.21;62.91;99219.25;5043358;28;20119;-78
2022/10/31 08:19:23;;;;;;;5.20;4.43;;;19.30;92.30;;;19.25;62.85;99217.44;5046729;28;20584;-79
2022/10/31 08:21:54;;;;;;;7.43;4.88;;;19.30;92.30;;;19.24;62.56;99226.03;5017750;28;20041;-78
2022/10/31 08:24:21;;;;;;;3.65;3.35;;;19.30;92.20;;;19.23;62.81;99227.16;5038867;28;20094;-79
2022/10/31 08:26:47;;;;;;;7.10;4.60;;;19.30;92.20;;;19.28;62.39;99221.50;5048735;28;20059;-78
2022/10/31 08:29:14;;;;;;;6.10;4.80;;;19.30;92.50;;;19.30;62.33;99230.25;5035742;28;20534;-79
2022/10/31 08:31:41;;;;;;;6.28;3.95;;;19.30;92.20;;;19.33;62.61;99220.53;5032028;28;20059;-78
2022/10/31 08:34:07;;;;;;;6.00;4.78;;;19.40;92.30;;;19.33;62.28;99220.53;5035632;28;20557;-79
2022/10/31 08:36:33;;;;;;;5.05;4.22;;;19.40;92.20;;;19.32;61.97;99221.69;5019000;28;20099;-79
2022/10/31 08:39:00;;;;;;;4.63;3.60;;;19.40;92.10;;;19.32;61.96;99229.94;5015802;28;20516;-79
2022/10/31 08:41:26;;;;;;;7.13;4.30;;;19.40;92.10;;;19.33;61.85;99226.84;5015123;28;20549;-78
2022/10/31 08:43:52;;;;;;;4.68;4.03;;;19.40;92.00;;;19.33;61.91;99226.03;5030429;28;20057;-79
2022/10/31 08:46:18;;;;;;;7.55;5.10;;;19.40;92.00;;;19.36;62.01;99223.47;5043753;28;20045;-79
2022/10/31 08:48:44;;;;;;;4.47;3.85;;;19.40;92.10;;;19.38;62.09;99217.63;4993514;28;20062;-79
2022/10/31 08:51:11;;;;;;;5.00;4.10;;;19.40;92.10;;;19.39;61.96;99222.84;5023300;28;20506;-78
2022/10/31 08:53:37;;;;;;;5.78;4.15;;;19.40;92.10;;;19.42;61.71;99215.88;5006523;28;20111;-78
2022/10/31 08:56:05;;;;;;;4.28;3.75;;;19.50;92.00;;;19.39;61.60;99211.81;4997619;28;20485;-78
2022/10/31 08:58:31;;;;;;;7.00;4.32;;;19.50;92.00;;;19.40;61.54;99215.38;5026136;28;20053;-79
2022/10/31 09:00:59;;;;;;;5.40;4.50;;;19.50;92.00;;;19.40;61.79;99218.94;5029601;28;20147;-78
2022/10/31 09:03:30;;;;;;;6.88;4.53;;;19.50;92.00;;;19.42;61.56;99210.38;5010562;28;20050;-79
2022/10/31 09:05:59;;;;;;;7.30;4.75;;;19.50;92.00;;;19.43;61.70;99212.78;5025453;28;20461;-79
2022/10/31 09:08:25;;;;;;;6.30;4.28;;;19.50;92.00;;;19.46;61.51;99220.41;5010197;28;20044;-78
2022/10/31 09:10:51;;;;;;;5.65;3.83;;;19.50;92.00;;;19.47;61.05;99212.97;4993683;28;20030;-79
2022/10/31 09:13:21;;;;;;;6.63;4.82;;;19.50;91.90;;;19.46;61.14;99209.41;5009606;28;20508;-79
2022/10/31 09:15:48;;;;;;;5.05;3.80;;;19.60;91.90;;;19.47;61.10;99215.72;5026371;28;20128;-79
2022/10/31 09:18:18;;;;;;;5.25;3.80;;;19.60;91.90;;;19.52;61.06;99210.06;5039094;28;20046;-79
2022/10/31 09:20:45;;;;;;;5.97;4.00;;;19.60;91.90;;;19.54;61.28;99213.31;5023596;28;20490;-79
2022/10/31 09:23:20;;;;;;;4.35;3.45;;;19.60;91.90;;;19.53;60.77;99211.66;5005301;28;20448;-79
2022/10/31 09:25:51;;;;;;;10.20;4.07;;;19.60;91.90;;;19.53;60.84;99211.66;4998546;28;20128;-79
2022/10/31 09:28:22;;;;;;;4.15;3.47;;;19.60;91.80;;;19.53;60.70;99212.47;5017224;28;20103;-79
2022/10/31 09:30:51;;;;;;;5.55;3.95;;;19.60;91.80;;;19.52;60.67;99218.31;5009436;28;20087;-79
2022/10/31 09:33:17;;;;;;;6.45;3.95;;;19.70;91.80;;;19.56;60.62;99224.78;5024216;28;20129;-79
2022/10/31 09:35:43;;;;;;;5.30;4.00;;;19.60;91.80;;;19.63;60.23;99233.34;5027807;28;20516;-79
2022/10/31 09:38:11;;;;;;;5.10;4.55;;;19.70;91.80;;;19.62;60.32;99228.19;5013484;28;20129;-78
2022/10/31 09:40:43;;;;;;;7.35;4.43;;;19.70;91.80;;;19.62;60.32;99230.94;5027521;28;20069;-79
2022/10/31 09:43:43;;;;;;;4.15;3.53;;;19.70;91.70;;;19.63;60.25;99227.84;5023092;28;20051;-78
2022/10/31 09:46:27;;;;;;;5.45;3.80;;;19.70;91.60;;;19.59;60.34;99231.56;5021984;28;20093;-79
2022/10/31 09:49:12;;;;;;;3.83;3.33;;;19.70;91.60;;;19.61;60.21;99224.59;5022859;28;20132;-79
2022/10/31 09:51:44;;;;;;;5.00;3.50;;;19.70;91.60;;;19.62;60.20;99220.75;5060065;28;20442;-78
2022/10/31 09:54:18;;;;;;;4.82;3.53;;;19.80;91.70;;;19.64;59.99;99229.50;5041044;28;20072;-79
2022/10/31 09:56:44;;;;;;;4.75;3.42;;;19.80;91.60;;;19.68;59.62;99221.41;5059884;28;20037;-79
2022/10/31 09:59:25;;;;;;;4.35;3.83;;;19.80;91.60;;;19.70;59.38;99222.72;5037112;28;20492;-79
2022/10/31 10:01:57;;;;;;;7.22;3.55;;;19.80;91.60;;;19.74;59.44;99222.84;5047997;28;20060;-79
2022/10/31 10:04:51;;;;;;;;;;;19.80;91.60;;;19.75;59.14;99223.69;5048669;28;20076;-78
2022/10/31 10:07:23;;;;;;;4.30;3.00;;;19.80;91.60;;;19.76;59.16;99220.59;5037718;28;20458;-79
2022/10/31 10:09:49;;;;;;;11.77;3.55;;;19.80;91.60;;;19.75;59.39;99221.75;5062992;28;20095;-79
2022/10/31 10:12:56;;;;;;;4.70;3.80;;;19.80;91.60;;;19.78;59.11;99221.09;5026506;28;20412;-78
2022/10/31 10:15:40;;;;;;;4.88;3.10;;;19.90;91.50;;;19.85;58.81;99220.63;5041934;28;20411;-78
2022/10/31 10:18:37;;;;;;;7.60;3.70;;;19.90;91.50;;;19.83;58.89;99215.41;5063925;28;20045;-79
2022/10/31 10:21:30;;;;;;;3.88;3.53;;;19.90;91.50;;;19.79;58.93;99219.94;5048823;28;20119;-79
2022/10/31 10:24:49;;;;;;;8.95;3.35;;;19.90;91.50;;;19.86;58.98;99213.97;5062920;28;20544;-78
2022/10/31 10:27:55;;;;;;;3.85;2.85;;;19.90;91.60;;;19.86;58.88;99213.97;5059676;28;20581;-79
2022/10/31 10:30:34;;;;;;;4.13;3.20;;;19.90;91.50;;;19.87;58.66;99215.56;5060125;28;20048;-79
2022/10/31 10:33:04;;;;;;;5.45;4.32;;;19.90;91.50;;;19.94;58.20;99219.44;5057637;28;20045;-79